sensor_id;sensor_type;location;lat;lon;timestamp;P1;durP1;ratioP1;P2;durP2;ratioP2
13343;SDS011;6741;48.964;9.406;2023-09-07T00:01:32;3.90;;;3.53;;
13343;SDS011;6741;48.964;9.406;2023-09-07T00:03:59;5.53;;;4.20;;
13343;SDS011;6741;48.964;9.406;2023-09-07T00:06:28;5.30;;;4.33;;
13343;SDS011;6741;48.964;9.406;2023-09-07T00:08:55;4.63;;;4.20;;
13343;SDS011;6741;48.964;9.406;2023-09-07T00:11:23;4.40;;;4.00;;
13343;SDS011;6741;48.964;9.406;2023-09-07T00:13:50;4.63;;;4.22;;
13343;SDS011;6741;48.964;9.406;2023-09-07T00:16:17;4.63;;;4.15;;
13343;SDS011;6741;48.964;9.406;2023-09-07T00:18:43;5.03;;;4.03;;
13343;SDS011;6741;48.964;9.406;2023-09-07T00:21:10;6.17;;;3.70;;
13343;SDS011;6741;48.964;9.406;2023-09-07T00:23:39;6.20;;;4.60;;
13343;SDS011;6741;48.964;9.406;2023-09-07T00:26:06;6.30;;;4.53;;
13343;SDS011;6741;48.964;9.406;2023-09-07T00:28:35;4.97;;;4.57;;
13343;SDS011;6741;48.964;9.406;2023-09-07T00:31:02;7.97;;;4.73;;
13343;SDS011;6741;48.964;9.406;2023-09-07T00:33:29;8.13;;;4.70;;
13343;SDS011;6741;48.964;9.406;2023-09-07T00:35:56;4.50;;;4.10;;
13343;SDS011;6741;48.964;9.406;2023-09-07T00:38:23;4.77;;;4.27;;
13343;SDS011;6741;48.964;9.406;2023-09-07T00:40:50;5.30;;;4.80;;
13343;SDS011;6741;48.964;9.406;2023-09-07T00:43:16;4.87;;;4.20;;
13343;SDS011;6741;48.964;9.406;2023-09-07T00:45:45;4.77;;;4.37;;
13343;SDS011;6741;48.964;9.406;2023-09-07T00:48:12;5.47;;;4.47;;
13343;SDS011;6741;48.964;9.406;2023-09-07T00:50:40;5.23;;;4.57;;
13343;SDS011;6741;48.964;9.406;2023-09-07T00:53:09;4.80;;;4.23;;
13343;SDS011;6741;48.964;9.406;2023-09-07T00:55:38;5.23;;;4.83;;
13343;SDS011;6741;48.964;9.406;2023-09-07T00:58:05;5.07;;;4.33;;
13343;SDS011;6741;48.964;9.406;2023-09-07T01:00:32;6.10;;;4.63;;
13343;SDS011;6741;48.964;9.406;2023-09-07T01:03:02;5.27;;;4.70;;
13343;SDS011;6741;48.964;9.406;2023-09-07T01:05:30;7.67;;;4.83;;
13343;SDS011;6741;48.964;9.406;2023-09-07T01:08:02;5.10;;;4.60;;
13343;SDS011;6741;48.964;9.406;2023-09-07T01:10:35;5.37;;;4.73;;
13343;SDS011;6741;48.964;9.406;2023-09-07T01:13:01;5.47;;;4.97;;
13343;SDS011;6741;48.964;9.406;2023-09-07T01:15:28;5.07;;;4.30;;
13343;SDS011;6741;48.964;9.406;2023-09-07T01:17:55;4.93;;;4.47;;
13343;SDS011;6741;48.964;9.406;2023-09-07T01:20:25;6.40;;;4.70;;
13343;SDS011;6741;48.964;9.406;2023-09-07T01:22:54;6.20;;;4.67;;
13343;SDS011;6741;48.964;9.406;2023-09-07T01:25:21;5.03;;;4.53;;
13343;SDS011;6741;48.964;9.406;2023-09-07T01:27:49;5.50;;;5.00;;
13343;SDS011;6741;48.964;9.406;2023-09-07T01:30:17;7.00;;;5.07;;
13343;SDS011;6741;48.964;9.406;2023-09-07T01:32:44;5.43;;;4.93;;
13343;SDS011;6741;48.964;9.406;2023-09-07T01:35:11;5.27;;;4.63;;
13343;SDS011;6741;48.964;9.406;2023-09-07T01:37:41;6.70;;;4.83;;
13343;SDS011;6741;48.964;9.406;2023-09-07T01:40:10;6.57;;;5.00;;
13343;SDS011;6741;48.964;9.406;2023-09-07T01:42:37;5.13;;;4.63;;
13343;SDS011;6741;48.964;9.406;2023-09-07T01:45:04;6.50;;;4.97;;
13343;SDS011;6741;48.964;9.406;2023-09-07T01:47:30;5.90;;;5.30;;
13343;SDS011;6741;48.964;9.406;2023-09-07T01:49:57;5.53;;;4.83;;
13343;SDS011;6741;48.964;9.406;2023-09-07T01:52:24;6.87;;;5.50;;
13343;SDS011;6741;48.964;9.406;2023-09-07T01:54:51;6.17;;;5.20;;
13343;SDS011;6741;48.964;9.406;2023-09-07T01:57:19;5.50;;;5.00;;
13343;SDS011;6741;48.964;9.406;2023-09-07T01:59:46;5.63;;;5.13;;
13343;SDS011;6741;48.964;9.406;2023-09-07T02:02:13;5.90;;;5.40;;
13343;SDS011;6741;48.964;9.406;2023-09-07T02:04:40;5.90;;;5.30;;
13343;SDS011;6741;48.964;9.406;2023-09-07T02:07:10;5.63;;;5.10;;
13343;SDS011;6741;48.964;9.406;2023-09-07T02:09:37;5.53;;;5.03;;
13343;SDS011;6741;48.964;9.406;2023-09-07T02:12:04;5.33;;;4.93;;
13343;SDS011;6741;48.964;9.406;2023-09-07T02:14:33;5.30;;;4.90;;
13343;SDS011;6741;48.964;9.406;2023-09-07T02:17:00;6.20;;;5.60;;
13343;SDS011;6741;48.964;9.406;2023-09-07T02:19:27;6.37;;;5.77;;
13343;SDS011;6741;48.964;9.406;2023-09-07T02:21:53;7.87;;;5.40;;
13343;SDS011;6741;48.964;9.406;2023-09-07T02:24:20;5.30;;;4.80;;
13343;SDS011;6741;48.964;9.406;2023-09-07T02:26:47;6.07;;;5.47;;
13343;SDS011;6741;48.964;9.406;2023-09-07T02:29:14;6.07;;;5.47;;
13343;SDS011;6741;48.964;9.406;2023-09-07T02:31:42;5.30;;;4.80;;
13343;SDS011;6741;48.964;9.406;2023-09-07T02:34:09;6.07;;;5.03;;
13343;SDS011;6741;48.964;9.406;2023-09-07T02:36:36;5.57;;;5.17;;
13343;SDS011;6741;48.964;9.406;2023-09-07T02:39:03;5.63;;;5.10;;
13343;SDS011;6741;48.964;9.406;2023-09-07T02:41:30;6.53;;;5.60;;
13343;SDS011;6741;48.964;9.406;2023-09-07T02:43:57;6.57;;;5.70;;
13343;SDS011;6741;48.964;9.406;2023-09-07T02:46:24;6.13;;;5.63;;
13343;SDS011;6741;48.964;9.406;2023-09-07T02:48:52;6.23;;;5.60;;
13343;SDS011;6741;48.964;9.406;2023-09-07T02:51:22;6.60;;;6.00;;
13343;SDS011;6741;48.964;9.406;2023-09-07T02:53:49;7.67;;;6.10;;
13343;SDS011;6741;48.964;9.406;2023-09-07T02:56:15;8.70;;;6.53;;
13343;SDS011;6741;48.964;9.406;2023-09-07T02:58:43;6.23;;;5.73;;
13343;SDS011;6741;48.964;9.406;2023-09-07T03:01:10;7.77;;;6.30;;
13343;SDS011;6741;48.964;9.406;2023-09-07T03:03:38;6.80;;;6.10;;
13343;SDS011;6741;48.964;9.406;2023-09-07T03:06:09;6.70;;;6.10;;
13343;SDS011;6741;48.964;9.406;2023-09-07T03:08:37;7.10;;;6.10;;
13343;SDS011;6741;48.964;9.406;2023-09-07T03:11:03;8.33;;;6.10;;
13343;SDS011;6741;48.964;9.406;2023-09-07T03:13:30;9.33;;;6.27;;
13343;SDS011;6741;48.964;9.406;2023-09-07T03:15:58;6.13;;;5.57;;
13343;SDS011;6741;48.964;9.406;2023-09-07T03:18:25;7.50;;;6.80;;
13343;SDS011;6741;48.964;9.406;2023-09-07T03:20:53;6.93;;;6.33;;
13343;SDS011;6741;48.964;9.406;2023-09-07T03:23:22;6.83;;;6.23;;
13343;SDS011;6741;48.964;9.406;2023-09-07T03:25:50;7.83;;;6.93;;
13343;SDS011;6741;48.964;9.406;2023-09-07T03:28:17;6.83;;;6.23;;
13343;SDS011;6741;48.964;9.406;2023-09-07T03:30:43;7.30;;;6.60;;
13343;SDS011;6741;48.964;9.406;2023-09-07T03:33:10;8.97;;;6.13;;
13343;SDS011;6741;48.964;9.406;2023-09-07T03:35:37;8.30;;;6.90;;
13343;SDS011;6741;48.964;9.406;2023-09-07T03:38:05;7.60;;;6.90;;
13343;SDS011;6741;48.964;9.406;2023-09-07T03:40:34;7.20;;;6.33;;
13343;SDS011;6741;48.964;9.406;2023-09-07T03:43:00;8.40;;;6.73;;
13343;SDS011;6741;48.964;9.406;2023-09-07T03:45:27;10.17;;;7.83;;
13343;SDS011;6741;48.964;9.406;2023-09-07T03:47:55;7.47;;;6.77;;
13343;SDS011;6741;48.964;9.406;2023-09-07T03:50:22;7.80;;;6.83;;
13343;SDS011;6741;48.964;9.406;2023-09-07T03:52:49;9.50;;;6.93;;
13343;SDS011;6741;48.964;9.406;2023-09-07T03:55:16;11.17;;;7.43;;
13343;SDS011;6741;48.964;9.406;2023-09-07T03:57:44;8.13;;;7.27;;
13343;SDS011;6741;48.964;9.406;2023-09-07T04:00:12;7.57;;;6.80;;
13343;SDS011;6741;48.964;9.406;2023-09-07T04:02:40;8.40;;;7.53;;
13343;SDS011;6741;48.964;9.406;2023-09-07T04:05:08;7.67;;;6.97;;
13343;SDS011;6741;48.964;9.406;2023-09-07T04:07:36;7.97;;;7.03;;
13343;SDS011;6741;48.964;9.406;2023-09-07T04:10:04;8.97;;;8.00;;
13343;SDS011;6741;48.964;9.406;2023-09-07T04:12:31;8.50;;;7.57;;
13343;SDS011;6741;48.964;9.406;2023-09-07T04:14:59;9.03;;;8.17;;
13343;SDS011;6741;48.964;9.406;2023-09-07T04:17:27;8.63;;;7.73;;
13343;SDS011;6741;48.964;9.406;2023-09-07T04:19:54;8.57;;;7.77;;
13343;SDS011;6741;48.964;9.406;2023-09-07T04:22:21;8.70;;;7.83;;
13343;SDS011;6741;48.964;9.406;2023-09-07T04:24:48;9.37;;;8.13;;
13343;SDS011;6741;48.964;9.406;2023-09-07T04:27:14;10.27;;;7.43;;
13343;SDS011;6741;48.964;9.406;2023-09-07T04:29:41;8.20;;;7.40;;
13343;SDS011;6741;48.964;9.406;2023-09-07T04:32:10;8.93;;;8.07;;
13343;SDS011;6741;48.964;9.406;2023-09-07T04:34:36;8.43;;;7.63;;
13343;SDS011;6741;48.964;9.406;2023-09-07T04:37:03;8.60;;;7.80;;
13343;SDS011;6741;48.964;9.406;2023-09-07T04:39:30;8.70;;;6.87;;
13343;SDS011;6741;48.964;9.406;2023-09-07T04:41:57;8.07;;;7.33;;
13343;SDS011;6741;48.964;9.406;2023-09-07T04:44:25;7.80;;;7.10;;
13343;SDS011;6741;48.964;9.406;2023-09-07T04:46:54;8.17;;;7.40;;
13343;SDS011;6741;48.964;9.406;2023-09-07T04:49:22;8.07;;;7.37;;
13343;SDS011;6741;48.964;9.406;2023-09-07T04:51:49;7.83;;;7.10;;
13343;SDS011;6741;48.964;9.406;2023-09-07T04:54:18;7.67;;;6.87;;
13343;SDS011;6741;48.964;9.406;2023-09-07T04:56:45;8.37;;;7.63;;
13343;SDS011;6741;48.964;9.406;2023-09-07T04:59:12;9.70;;;7.43;;
13343;SDS011;6741;48.964;9.406;2023-09-07T05:01:39;8.63;;;7.40;;
13343;SDS011;6741;48.964;9.406;2023-09-07T05:04:06;7.00;;;6.30;;
13343;SDS011;6741;48.964;9.406;2023-09-07T05:06:34;9.33;;;7.33;;
13343;SDS011;6741;48.964;9.406;2023-09-07T05:09:03;7.63;;;6.93;;
13343;SDS011;6741;48.964;9.406;2023-09-07T05:11:30;8.13;;;7.37;;
13343;SDS011;6741;48.964;9.406;2023-09-07T05:13:59;8.57;;;7.73;;
13343;SDS011;6741;48.964;9.406;2023-09-07T05:16:26;8.20;;;7.40;;
13343;SDS011;6741;48.964;9.406;2023-09-07T05:18:53;9.00;;;7.77;;
13343;SDS011;6741;48.964;9.406;2023-09-07T05:21:20;8.90;;;7.43;;
13343;SDS011;6741;48.964;9.406;2023-09-07T05:23:48;11.43;;;7.23;;
13343;SDS011;6741;48.964;9.406;2023-09-07T05:26:20;7.03;;;6.40;;
13343;SDS011;6741;48.964;9.406;2023-09-07T05:28:47;11.03;;;7.10;;
13343;SDS011;6741;48.964;9.406;2023-09-07T05:31:14;7.97;;;7.17;;
13343;SDS011;6741;48.964;9.406;2023-09-07T05:33:40;8.70;;;7.27;;
13343;SDS011;6741;48.964;9.406;2023-09-07T05:36:07;8.57;;;7.87;;
13343;SDS011;6741;48.964;9.406;2023-09-07T05:38:34;8.33;;;7.20;;
13343;SDS011;6741;48.964;9.406;2023-09-07T05:41:03;9.60;;;8.30;;
13343;SDS011;6741;48.964;9.406;2023-09-07T05:43:30;8.83;;;8.03;;
13343;SDS011;6741;48.964;9.406;2023-09-07T05:45:56;8.03;;;7.30;;
13343;SDS011;6741;48.964;9.406;2023-09-07T05:48:23;8.33;;;7.57;;
13343;SDS011;6741;48.964;9.406;2023-09-07T05:50:50;8.13;;;7.43;;
13343;SDS011;6741;48.964;9.406;2023-09-07T05:53:18;7.93;;;7.13;;
13343;SDS011;6741;48.964;9.406;2023-09-07T05:55:45;8.30;;;7.50;;
13343;SDS011;6741;48.964;9.406;2023-09-07T05:58:13;9.07;;;6.57;;
13343;SDS011;6741;48.964;9.406;2023-09-07T06:00:40;8.80;;;7.10;;
13343;SDS011;6741;48.964;9.406;2023-09-07T06:03:06;7.63;;;6.93;;
13343;SDS011;6741;48.964;9.406;2023-09-07T06:05:34;7.80;;;7.20;;
13343;SDS011;6741;48.964;9.406;2023-09-07T06:08:02;7.47;;;6.77;;
13343;SDS011;6741;48.964;9.406;2023-09-07T06:10:29;8.50;;;7.63;;
13343;SDS011;6741;48.964;9.406;2023-09-07T06:12:56;10.03;;;6.93;;
13343;SDS011;6741;48.964;9.406;2023-09-07T06:15:25;7.67;;;6.90;;
13343;SDS011;6741;48.964;9.406;2023-09-07T06:17:52;8.10;;;7.40;;
13343;SDS011;6741;48.964;9.406;2023-09-07T06:20:20;8.05;;;7.20;;
13343;SDS011;6741;48.964;9.406;2023-09-07T06:22:47;8.10;;;7.30;;
13343;SDS011;6741;48.964;9.406;2023-09-07T06:25:14;7.82;;;7.00;;
13343;SDS011;6741;48.964;9.406;2023-09-07T06:27:41;7.75;;;6.97;;
13343;SDS011;6741;48.964;9.406;2023-09-07T06:30:08;9.63;;;7.75;;
13343;SDS011;6741;48.964;9.406;2023-09-07T06:32:37;8.52;;;7.32;;
13343;SDS011;6741;48.964;9.406;2023-09-07T06:35:05;13.68;;;7.65;;
13343;SDS011;6741;48.964;9.406;2023-09-07T06:37:33;8.27;;;7.38;;
13343;SDS011;6741;48.964;9.406;2023-09-07T06:40:00;9.98;;;7.05;;
13343;SDS011;6741;48.964;9.406;2023-09-07T06:42:28;8.90;;;6.68;;
13343;SDS011;6741;48.964;9.406;2023-09-07T06:44:56;9.70;;;7.07;;
13343;SDS011;6741;48.964;9.406;2023-09-07T06:47:23;8.63;;;6.47;;
13343;SDS011;6741;48.964;9.406;2023-09-07T06:49:52;8.40;;;6.82;;
13343;SDS011;6741;48.964;9.406;2023-09-07T06:52:19;6.78;;;6.18;;
13343;SDS011;6741;48.964;9.406;2023-09-07T06:54:46;8.25;;;6.25;;
13343;SDS011;6741;48.964;9.406;2023-09-07T06:57:12;8.45;;;6.13;;
13343;SDS011;6741;48.964;9.406;2023-09-07T06:59:38;7.40;;;6.70;;
13343;SDS011;6741;48.964;9.406;2023-09-07T07:02:05;9.00;;;6.50;;
13343;SDS011;6741;48.964;9.406;2023-09-07T07:04:32;9.30;;;6.30;;
13343;SDS011;6741;48.964;9.406;2023-09-07T07:07:00;7.90;;;6.35;;
13343;SDS011;6741;48.964;9.406;2023-09-07T07:09:29;7.60;;;5.63;;
13343;SDS011;6741;48.964;9.406;2023-09-07T07:11:56;6.43;;;5.93;;
13343;SDS011;6741;48.964;9.406;2023-09-07T07:14:24;7.22;;;5.60;;
13343;SDS011;6741;48.964;9.406;2023-09-07T07:16:51;5.88;;;5.38;;
13343;SDS011;6741;48.964;9.406;2023-09-07T07:19:17;6.65;;;5.05;;
13343;SDS011;6741;48.964;9.406;2023-09-07T07:21:45;5.25;;;4.80;;
13343;SDS011;6741;48.964;9.406;2023-09-07T07:24:13;5.95;;;5.22;;
13343;SDS011;6741;48.964;9.406;2023-09-07T07:26:40;6.35;;;5.65;;
13343;SDS011;6741;48.964;9.406;2023-09-07T07:29:07;8.18;;;5.55;;
13343;SDS011;6741;48.964;9.406;2023-09-07T07:31:34;5.82;;;5.22;;
13343;SDS011;6741;48.964;9.406;2023-09-07T07:34:01;5.88;;;5.30;;
13343;SDS011;6741;48.964;9.406;2023-09-07T07:36:28;6.07;;;5.57;;
13343;SDS011;6741;48.964;9.406;2023-09-07T07:38:56;5.60;;;5.00;;
13343;SDS011;6741;48.964;9.406;2023-09-07T07:41:24;5.43;;;4.93;;
13343;SDS011;6741;48.964;9.406;2023-09-07T07:43:53;5.35;;;4.95;;
13343;SDS011;6741;48.964;9.406;2023-09-07T07:46:20;5.05;;;4.63;;
13343;SDS011;6741;48.964;9.406;2023-09-07T07:48:47;5.88;;;5.32;;
13343;SDS011;6741;48.964;9.406;2023-09-07T07:51:13;5.47;;;4.97;;
13343;SDS011;6741;48.964;9.406;2023-09-07T07:53:41;4.88;;;4.47;;
13343;SDS011;6741;48.964;9.406;2023-09-07T07:56:13;5.55;;;5.05;;
13343;SDS011;6741;48.964;9.406;2023-09-07T07:58:42;7.18;;;5.18;;
13343;SDS011;6741;48.964;9.406;2023-09-07T08:01:13;6.00;;;5.50;;
13343;SDS011;6741;48.964;9.406;2023-09-07T08:03:40;5.50;;;4.93;;
13343;SDS011;6741;48.964;9.406;2023-09-07T08:06:08;5.07;;;4.60;;
13343;SDS011;6741;48.964;9.406;2023-09-07T08:08:36;5.45;;;4.95;;
13343;SDS011;6741;48.964;9.406;2023-09-07T08:11:04;5.50;;;4.88;;
13343;SDS011;6741;48.964;9.406;2023-09-07T08:13:32;5.65;;;5.05;;
13343;SDS011;6741;48.964;9.406;2023-09-07T08:16:01;5.57;;;5.03;;
13343;SDS011;6741;48.964;9.406;2023-09-07T08:18:28;5.18;;;4.68;;
13343;SDS011;6741;48.964;9.406;2023-09-07T08:20:57;5.35;;;4.90;;
13343;SDS011;6741;48.964;9.406;2023-09-07T08:23:24;5.00;;;4.60;;
13343;SDS011;6741;48.964;9.406;2023-09-07T08:25:51;5.80;;;4.97;;
13343;SDS011;6741;48.964;9.406;2023-09-07T08:28:19;5.65;;;4.55;;
13343;SDS011;6741;48.964;9.406;2023-09-07T08:30:48;4.93;;;4.43;;
13343;SDS011;6741;48.964;9.406;2023-09-07T08:33:19;9.05;;;4.90;;
13343;SDS011;6741;48.964;9.406;2023-09-07T08:35:51;5.55;;;5.05;;
13343;SDS011;6741;48.964;9.406;2023-09-07T08:38:18;5.30;;;4.88;;
13343;SDS011;6741;48.964;9.406;2023-09-07T08:40:47;5.43;;;4.93;;
13343;SDS011;6741;48.964;9.406;2023-09-07T08:43:16;6.00;;;4.63;;
13343;SDS011;6741;48.964;9.406;2023-09-07T08:45:46;4.85;;;4.45;;
13343;SDS011;6741;48.964;9.406;2023-09-07T08:48:17;5.15;;;4.55;;
13343;SDS011;6741;48.964;9.406;2023-09-07T08:50:46;5.75;;;5.15;;
13343;SDS011;6741;48.964;9.406;2023-09-07T08:53:18;5.10;;;4.70;;
13343;SDS011;6741;48.964;9.406;2023-09-07T08:55:45;4.63;;;4.30;;
13343;SDS011;6741;48.964;9.406;2023-09-07T08:58:13;5.22;;;4.72;;
13343;SDS011;6741;48.964;9.406;2023-09-07T09:00:41;5.03;;;4.60;;
13343;SDS011;6741;48.964;9.406;2023-09-07T09:03:09;4.85;;;4.45;;
13343;SDS011;6741;48.964;9.406;2023-09-07T09:05:38;5.03;;;4.53;;
13343;SDS011;6741;48.964;9.406;2023-09-07T09:08:06;5.30;;;4.80;;
13343;SDS011;6741;48.964;9.406;2023-09-07T09:10:38;4.95;;;4.53;;
13343;SDS011;6741;48.964;9.406;2023-09-07T09:13:08;4.80;;;4.40;;
13343;SDS011;6741;48.964;9.406;2023-09-07T09:15:37;4.80;;;4.35;;
13343;SDS011;6741;48.964;9.406;2023-09-07T09:18:10;7.03;;;4.45;;
13343;SDS011;6741;48.964;9.406;2023-09-07T09:20:43;5.00;;;4.60;;
13343;SDS011;6741;48.964;9.406;2023-09-07T09:23:12;4.90;;;4.47;;
13343;SDS011;6741;48.964;9.406;2023-09-07T09:25:41;6.45;;;4.72;;
13343;SDS011;6741;48.964;9.406;2023-09-07T09:28:11;4.95;;;4.60;;
13343;SDS011;6741;48.964;9.406;2023-09-07T09:30:39;5.45;;;4.95;;
13343;SDS011;6741;48.964;9.406;2023-09-07T09:33:11;5.57;;;4.55;;
13343;SDS011;6741;48.964;9.406;2023-09-07T09:35:43;6.57;;;4.20;;
13343;SDS011;6741;48.964;9.406;2023-09-07T09:38:13;4.85;;;4.32;;
13343;SDS011;6741;48.964;9.406;2023-09-07T09:40:47;4.80;;;4.40;;
13343;SDS011;6741;48.964;9.406;2023-09-07T09:43:16;4.97;;;4.47;;
13343;SDS011;6741;48.964;9.406;2023-09-07T09:45:47;5.00;;;4.60;;
13343;SDS011;6741;48.964;9.406;2023-09-07T09:48:18;4.80;;;4.40;;
13343;SDS011;6741;48.964;9.406;2023-09-07T09:50:49;4.70;;;4.30;;
13343;SDS011;6741;48.964;9.406;2023-09-07T09:53:19;4.55;;;4.25;;
13343;SDS011;6741;48.964;9.406;2023-09-07T09:55:48;5.10;;;4.20;;
13343;SDS011;6741;48.964;9.406;2023-09-07T09:58:18;4.38;;;3.97;;
13343;SDS011;6741;48.964;9.406;2023-09-07T10:00:47;4.80;;;4.40;;
13343;SDS011;6741;48.964;9.406;2023-09-07T10:03:18;5.43;;;4.57;;
13343;SDS011;6741;48.964;9.406;2023-09-07T10:05:53;5.72;;;4.22;;
13343;SDS011;6741;48.964;9.406;2023-09-07T10:08:22;4.82;;;4.40;;
13343;SDS011;6741;48.964;9.406;2023-09-07T10:10:52;5.60;;;4.10;;
13343;SDS011;6741;48.964;9.406;2023-09-07T10:13:28;5.28;;;4.78;;
13343;SDS011;6741;48.964;9.406;2023-09-07T10:16:01;4.82;;;4.38;;
13343;SDS011;6741;48.964;9.406;2023-09-07T10:18:33;4.50;;;4.20;;
13343;SDS011;6741;48.964;9.406;2023-09-07T10:21:04;4.53;;;4.13;;
13343;SDS011;6741;48.964;9.406;2023-09-07T10:23:36;4.35;;;3.97;;
13343;SDS011;6741;48.964;9.406;2023-09-07T10:26:10;4.53;;;4.13;;
13343;SDS011;6741;48.964;9.406;2023-09-07T10:28:40;4.20;;;3.63;;
13343;SDS011;6741;48.964;9.406;2023-09-07T10:31:13;4.15;;;3.80;;
13343;SDS011;6741;48.964;9.406;2023-09-07T10:33:43;4.65;;;4.10;;
13343;SDS011;6741;48.964;9.406;2023-09-07T10:36:21;4.20;;;3.80;;
13343;SDS011;6741;48.964;9.406;2023-09-07T10:38:51;4.68;;;3.92;;
13343;SDS011;6741;48.964;9.406;2023-09-07T10:41:21;4.35;;;4.05;;
13343;SDS011;6741;48.964;9.406;2023-09-07T10:43:50;4.68;;;3.88;;
13343;SDS011;6741;48.964;9.406;2023-09-07T10:46:20;3.67;;;3.42;;
13343;SDS011;6741;48.964;9.406;2023-09-07T10:48:50;3.83;;;3.55;;
13343;SDS011;6741;48.964;9.406;2023-09-07T10:51:20;4.30;;;3.90;;
13343;SDS011;6741;48.964;9.406;2023-09-07T10:53:49;4.25;;;3.85;;
13343;SDS011;6741;48.964;9.406;2023-09-07T10:56:20;4.20;;;3.80;;
13343;SDS011;6741;48.964;9.406;2023-09-07T10:58:53;4.57;;;3.70;;
13343;SDS011;6741;48.964;9.406;2023-09-07T11:01:22;4.18;;;3.78;;
13343;SDS011;6741;48.964;9.406;2023-09-07T11:03:50;4.05;;;3.75;;
13343;SDS011;6741;48.964;9.406;2023-09-07T11:06:19;3.97;;;3.78;;
13343;SDS011;6741;48.964;9.406;2023-09-07T11:08:50;4.22;;;3.85;;
13343;SDS011;6741;48.964;9.406;2023-09-07T11:11:18;4.10;;;3.80;;
13343;SDS011;6741;48.964;9.406;2023-09-07T11:13:48;4.45;;;4.05;;
13343;SDS011;6741;48.964;9.406;2023-09-07T11:16:17;3.85;;;3.50;;
13343;SDS011;6741;48.964;9.406;2023-09-07T11:18:45;4.38;;;4.07;;
13343;SDS011;6741;48.964;9.406;2023-09-07T11:21:14;3.90;;;3.60;;
13343;SDS011;6741;48.964;9.406;2023-09-07T11:23:44;4.30;;;3.65;;
13343;SDS011;6741;48.964;9.406;2023-09-07T11:26:13;3.55;;;3.35;;
13343;SDS011;6741;48.964;9.406;2023-09-07T11:28:44;4.22;;;3.85;;
13343;SDS011;6741;48.964;9.406;2023-09-07T11:31:13;4.25;;;3.30;;
13343;SDS011;6741;48.964;9.406;2023-09-07T11:33:47;4.05;;;3.75;;
13343;SDS011;6741;48.964;9.406;2023-09-07T11:36:16;3.53;;;3.30;;
13343;SDS011;6741;48.964;9.406;2023-09-07T11:38:46;4.50;;;3.60;;
13343;SDS011;6741;48.964;9.406;2023-09-07T11:41:17;4.07;;;3.78;;
13343;SDS011;6741;48.964;9.406;2023-09-07T11:43:45;3.85;;;3.55;;
13343;SDS011;6741;48.964;9.406;2023-09-07T11:46:14;4.20;;;3.88;;
13343;SDS011;6741;48.964;9.406;2023-09-07T11:48:43;3.90;;;3.60;;
13343;SDS011;6741;48.964;9.406;2023-09-07T11:51:13;3.97;;;3.50;;
13343;SDS011;6741;48.964;9.406;2023-09-07T11:53:42;5.28;;;3.80;;
13343;SDS011;6741;48.964;9.406;2023-09-07T11:56:12;4.22;;;3.83;;
13343;SDS011;6741;48.964;9.406;2023-09-07T11:58:41;3.65;;;3.35;;
13343;SDS011;6741;48.964;9.406;2023-09-07T12:01:10;3.63;;;3.42;;
13343;SDS011;6741;48.964;9.406;2023-09-07T12:03:42;3.50;;;3.20;;
13343;SDS011;6741;48.964;9.406;2023-09-07T12:06:11;5.47;;;3.80;;
13343;SDS011;6741;48.964;9.406;2023-09-07T12:08:41;3.33;;;3.03;;
13343;SDS011;6741;48.964;9.406;2023-09-07T12:11:26;4.57;;;3.30;;
13343;SDS011;6741;48.964;9.406;2023-09-07T12:13:54;3.33;;;3.05;;
13343;SDS011;6741;48.964;9.406;2023-09-07T12:16:23;3.53;;;3.22;;
13343;SDS011;6741;48.964;9.406;2023-09-07T12:18:52;3.67;;;3.35;;
13343;SDS011;6741;48.964;9.406;2023-09-07T12:21:24;3.30;;;3.10;;
13343;SDS011;6741;48.964;9.406;2023-09-07T12:23:51;4.50;;;3.15;;
13343;SDS011;6741;48.964;9.406;2023-09-07T12:26:19;4.13;;;2.88;;
13343;SDS011;6741;48.964;9.406;2023-09-07T12:28:49;3.25;;;3.05;;
13343;SDS011;6741;48.964;9.406;2023-09-07T12:31:18;3.53;;;3.20;;
13343;SDS011;6741;48.964;9.406;2023-09-07T12:33:47;3.55;;;3.25;;
13343;SDS011;6741;48.964;9.406;2023-09-07T12:36:16;3.70;;;3.40;;
13343;SDS011;6741;48.964;9.406;2023-09-07T12:38:47;3.72;;;3.33;;
13343;SDS011;6741;48.964;9.406;2023-09-07T12:41:15;3.15;;;2.92;;
13343;SDS011;6741;48.964;9.406;2023-09-07T12:43:42;3.40;;;3.20;;
13343;SDS011;6741;48.964;9.406;2023-09-07T12:46:10;3.20;;;3.00;;
13343;SDS011;6741;48.964;9.406;2023-09-07T12:48:37;3.38;;;2.95;;
13343;SDS011;6741;48.964;9.406;2023-09-07T12:51:04;3.70;;;3.20;;
13343;SDS011;6741;48.964;9.406;2023-09-07T12:53:31;3.30;;;3.10;;
13343;SDS011;6741;48.964;9.406;2023-09-07T12:55:57;3.35;;;3.05;;
13343;SDS011;6741;48.964;9.406;2023-09-07T12:58:26;3.45;;;3.15;;
13343;SDS011;6741;48.964;9.406;2023-09-07T13:00:53;3.78;;;3.30;;
13343;SDS011;6741;48.964;9.406;2023-09-07T13:03:21;3.47;;;3.20;;
13343;SDS011;6741;48.964;9.406;2023-09-07T13:05:48;3.30;;;3.10;;
13343;SDS011;6741;48.964;9.406;2023-09-07T13:08:15;9.25;;;3.30;;
13343;SDS011;6741;48.964;9.406;2023-09-07T13:10:42;3.13;;;2.90;;
13343;SDS011;6741;48.964;9.406;2023-09-07T13:13:08;3.30;;;3.00;;
13343;SDS011;6741;48.964;9.406;2023-09-07T13:15:35;3.75;;;3.42;;
13343;SDS011;6741;48.964;9.406;2023-09-07T13:18:02;4.57;;;3.65;;
13343;SDS011;6741;48.964;9.406;2023-09-07T13:20:31;3.33;;;2.88;;
13343;SDS011;6741;48.964;9.406;2023-09-07T13:22:58;3.75;;;3.40;;
13343;SDS011;6741;48.964;9.406;2023-09-07T13:25:25;3.67;;;3.38;;
13343;SDS011;6741;48.964;9.406;2023-09-07T13:27:52;3.00;;;2.80;;
13343;SDS011;6741;48.964;9.406;2023-09-07T13:30:19;4.97;;;3.28;;
13343;SDS011;6741;48.964;9.406;2023-09-07T13:32:46;3.38;;;3.05;;
13343;SDS011;6741;48.964;9.406;2023-09-07T13:35:12;5.18;;;3.22;;
13343;SDS011;6741;48.964;9.406;2023-09-07T13:37:41;3.47;;;3.17;;
13343;SDS011;6741;48.964;9.406;2023-09-07T13:40:08;3.42;;;3.20;;
13343;SDS011;6741;48.964;9.406;2023-09-07T13:42:35;3.10;;;2.90;;
13343;SDS011;6741;48.964;9.406;2023-09-07T13:45:04;3.40;;;3.10;;
13343;SDS011;6741;48.964;9.406;2023-09-07T13:47:31;3.20;;;3.00;;
13343;SDS011;6741;48.964;9.406;2023-09-07T13:49:58;3.20;;;2.90;;
13343;SDS011;6741;48.964;9.406;2023-09-07T13:52:25;3.20;;;3.00;;
13343;SDS011;6741;48.964;9.406;2023-09-07T13:54:53;3.97;;;2.80;;
13343;SDS011;6741;48.964;9.406;2023-09-07T13:57:20;3.97;;;2.90;;
13343;SDS011;6741;48.964;9.406;2023-09-07T13:59:47;3.00;;;2.80;;
13343;SDS011;6741;48.964;9.406;2023-09-07T14:02:14;3.35;;;3.08;;
13343;SDS011;6741;48.964;9.406;2023-09-07T14:04:41;2.90;;;2.70;;
13343;SDS011;6741;48.964;9.406;2023-09-07T14:07:07;2.92;;;2.72;;
13343;SDS011;6741;48.964;9.406;2023-09-07T14:09:34;3.30;;;3.00;;
13343;SDS011;6741;48.964;9.406;2023-09-07T14:12:03;2.75;;;2.55;;
13343;SDS011;6741;48.964;9.406;2023-09-07T14:14:30;3.05;;;2.85;;
13343;SDS011;6741;48.964;9.406;2023-09-07T14:16:57;3.88;;;3.08;;
13343;SDS011;6741;48.964;9.406;2023-09-07T14:19:25;3.00;;;2.80;;
13343;SDS011;6741;48.964;9.406;2023-09-07T14:21:55;2.63;;;2.53;;
13343;SDS011;6741;48.964;9.406;2023-09-07T14:24:22;4.40;;;2.70;;
13343;SDS011;6741;48.964;9.406;2023-09-07T14:26:49;2.90;;;2.70;;
13343;SDS011;6741;48.964;9.406;2023-09-07T14:29:18;3.72;;;2.95;;
13343;SDS011;6741;48.964;9.406;2023-09-07T14:31:45;2.80;;;2.60;;
13343;SDS011;6741;48.964;9.406;2023-09-07T14:34:12;3.75;;;2.92;;
13343;SDS011;6741;48.964;9.406;2023-09-07T14:36:39;3.20;;;2.90;;
13343;SDS011;6741;48.964;9.406;2023-09-07T14:39:06;3.40;;;2.78;;
13343;SDS011;6741;48.964;9.406;2023-09-07T14:41:34;3.35;;;3.05;;
13343;SDS011;6741;48.964;9.406;2023-09-07T14:44:00;3.90;;;3.22;;
13343;SDS011;6741;48.964;9.406;2023-09-07T14:46:29;3.00;;;2.80;;
13343;SDS011;6741;48.964;9.406;2023-09-07T14:48:56;3.38;;;3.08;;
13343;SDS011;6741;48.964;9.406;2023-09-07T14:51:23;3.67;;;3.28;;
13343;SDS011;6741;48.964;9.406;2023-09-07T14:53:49;3.40;;;3.20;;
13343;SDS011;6741;48.964;9.406;2023-09-07T14:56:16;3.22;;;2.92;;
13343;SDS011;6741;48.964;9.406;2023-09-07T14:58:44;5.80;;;3.80;;
13343;SDS011;6741;48.964;9.406;2023-09-07T15:01:11;6.97;;;2.97;;
13343;SDS011;6741;48.964;9.406;2023-09-07T15:03:39;3.20;;;3.00;;
13343;SDS011;6741;48.964;9.406;2023-09-07T15:06:06;3.42;;;3.22;;